Jefferson, Wisconsin
Current Conditions -  °F | °C
As of 6:15 AM on Tuesday 27 Jan 2015 (Local Time) from KRYV Reporting Station
Haze Haze  
Wind Chill: 19°   Ceiling: 800
Heat Index: 25°   Visibility: 5mi
Dew Point: 24°   Wind: 5mph
Humidity: 97%   Direction: 10°N
Pressure: 30.06"   Gusts: NA
Location:  43°N, 88.81°W
Report Text: KRYV 271215Z AUTO 01004KT 5SM BR OVC008 M04/M04 A3006 RMK AO2 T10411045
Loading
Personal Weather Stations






























Interactive Weather Map New forecast layout! Learn more

10-Day Weather Forecast

Advertisements
Track Severe Weather on mobile